Hayward Executive, CA

8:57 PM PDT on August 28, 2014 (GMT -0700)
Hayward Executive | Change Station
CLOSE
Current Station
Airport
Location: Hayward,
Elevation: 46 ft
Nearby Weather Stations

Elev 46 ft 37.66 °N, 122.12 °W | Updated 1 hour ago

Clear
Clear
67 °F
Feels Like 67 °F
N
9
Wind Variable Wind from WNW

Today
High -- | Low -- °F
--% Chance of Precip.
Yesterday
High -- | Low -- °F
Precip. -- in
6:35 AM 7:43 PM
Waxing Crescent, 11% visible
Pressure 29.97 in
Visibility 10.0 miles
Clouds Clear
Dew Point 62 °F
Humidity 84%
Rainfall 0.00 in
Snow Depth Not available.
UV 0 out of 12
Pollen 7.30 out of 12
Air Quality Not available.
Flu Activity Not available.
METAR KHWD 290254Z 29008KT 10SM CLR 19/17 A2994 RMK AO2 SLP148 T01940167 55003 $

More Conditions Fewer Conditions

Pressure 29.97 in
Visibility 10.0 miles
Clouds Clear
Dew Point 62 °F
Humidity 84%
Rainfall 0.00 in
Snow Depth Not available.
UV 0 out of 12
Pollen 7.30 out of 12
Air Quality Not available.
Flu Activity Not available.
METAR KHWD 290254Z 29008KT 10SM CLR 19/17 A2994 RMK AO2 SLP148 T01940167 55003 $

More Conditions Fewer Conditions

10-Day Weather Forecast

Almanac

Astronomy

Aug. 28, 2014 Rise Set
Actual Time 6:35 AM PDT 7:43 PM PDT
Civil Twilight 6:08 AM PDT 8:10 PM PDT
Nautical Twilight 5:36 AM PDT 8:42 PM PDT
Astronomical Twilight 5:02 AM PDT 9:15 PM PDT
Moon 9:28 AM PDT (8/28) 9:14 PM PDT (8/28)
Length of Visible Light 14h 01m
Length of Day
13h 07m
Tomorrow will be 2m 18s shorter.
Waxing Crescent, 11% of the Moon is Illuminated
Today
Waxing Crescent
Sep 2
First Quarter
Sep 8
Full
Sep 15
Last Quarter
Sep 24
New

Today's Extremes

State Highs State Lows

Community

WunderPhotos

Upload Photos

1,748,182 photos uploaded!

Nearby

Air Quality

  Air Quality AQ Index Pollutant
Yesterday Good
PM2.5
Yesterday Good
OZONE
Thursday Good
PM2.5
Friday Good
PM2.5
Saturday Good
PM2.5
Sunday Good
OZONE
Monday Good
OZONE
Tuesday Good
PM2.5

Snow Depth

Station Depth Elevation
Blue Lakes 0 in 8000 ft
Rubicon #2 0 in 7500 ft
Hagan's Meadow 0 in 8000 ft
Leavitt Meadows 1 in 7200 ft
Adin Mountain 0 in 6200 ft

Earthquake Activity

City Distance Mag. Time & Date
Napa, California 42 miles 2.6 11:57 AM PDT
2014-08-27
The Geysers, California 88 miles 2.6 7:42 AM PDT
2014-08-27
Soledad, California 95 miles 2.6 12:15 PM PDT
2014-08-26
Napa, California 41 miles 2.5 10:56 AM PDT
2014-08-26
Minimum magnitude displayed is 2.5.

Coastal Water Temperatures

Place Temperature
No Stations Reporting

Nearby Weather Stations